sensor_id;sensor_type;location;lat;lon;timestamp;temperature;humidity
41876;DHT22;27555;50.808;4.402;2023-03-03T00:00:56;5.10;99.40
41876;DHT22;27555;50.808;4.402;2023-03-03T00:03:24;4.90;99.30
41876;DHT22;27555;50.808;4.402;2023-03-03T00:05:50;4.90;99.80
41876;DHT22;27555;50.808;4.402;2023-03-03T00:08:17;4.80;99.80
41876;DHT22;27555;50.808;4.402;2023-03-03T00:10:43;4.70;99.80
41876;DHT22;27555;50.808;4.402;2023-03-03T00:13:15;4.50;99.90
41876;DHT22;27555;50.808;4.402;2023-03-03T00:15:41;4.60;99.90
41876;DHT22;27555;50.808;4.402;2023-03-03T00:20:54;4.90;99.50
41876;DHT22;27555;50.808;4.402;2023-03-03T00:23:38;4.60;99.90
41876;DHT22;27555;50.808;4.402;2023-03-03T00:26:25;4.60;99.90
41876;DHT22;27555;50.808;4.402;2023-03-03T00:28:52;4.70;99.90
41876;DHT22;27555;50.808;4.402;2023-03-03T00:31:24;4.80;99.90
41876;DHT22;27555;50.808;4.402;2023-03-03T00:33:52;4.80;99.90
41876;DHT22;27555;50.808;4.402;2023-03-03T00:36:28;4.70;99.90
41876;DHT22;27555;50.808;4.402;2023-03-03T00:41:48;4.70;99.90
41876;DHT22;27555;50.808;4.402;2023-03-03T00:44:39;4.30;99.90
41876;DHT22;27555;50.808;4.402;2023-03-03T00:47:27;4.30;99.90
41876;DHT22;27555;50.808;4.402;2023-03-03T00:52:33;4.10;99.90
41876;DHT22;27555;50.808;4.402;2023-03-03T00:54:59;4.20;99.90
41876;DHT22;27555;50.808;4.402;2023-03-03T00:57:25;4.20;99.90
41876;DHT22;27555;50.808;4.402;2023-03-03T00:59:51;4.30;99.90
41876;DHT22;27555;50.808;4.402;2023-03-03T01:02:16;4.40;99.90
41876;DHT22;27555;50.808;4.402;2023-03-03T01:04:44;4.20;99.90
41876;DHT22;27555;50.808;4.402;2023-03-03T01:07:13;4.20;99.90
41876;DHT22;27555;50.808;4.402;2023-03-03T01:09:39;4.00;99.90
41876;DHT22;27555;50.808;4.402;2023-03-03T01:12:05;4.10;99.90
41876;DHT22;27555;50.808;4.402;2023-03-03T01:14:31;4.00;99.90
41876;DHT22;27555;50.808;4.402;2023-03-03T01:16:57;3.80;99.90
41876;DHT22;27555;50.808;4.402;2023-03-03T01:19:22;3.90;99.90
41876;DHT22;27555;50.808;4.402;2023-03-03T01:21:48;4.00;99.90
41876;DHT22;27555;50.808;4.402;2023-03-03T01:24:13;4.20;99.90
41876;DHT22;27555;50.808;4.402;2023-03-03T01:26:39;4.40;99.90
41876;DHT22;27555;50.808;4.402;2023-03-03T01:29:05;4.20;99.90
41876;DHT22;27555;50.808;4.402;2023-03-03T01:31:30;4.00;99.90
41876;DHT22;27555;50.808;4.402;2023-03-03T01:33:56;3.90;99.90
41876;DHT22;27555;50.808;4.402;2023-03-03T01:36:23;4.00;99.90
41876;DHT22;27555;50.808;4.402;2023-03-03T01:38:49;4.30;99.90
41876;DHT22;27555;50.808;4.402;2023-03-03T01:41:15;4.40;99.90
41876;DHT22;27555;50.808;4.402;2023-03-03T01:43:50;4.40;99.90
41876;DHT22;27555;50.808;4.402;2023-03-03T01:46:30;4.40;99.90
41876;DHT22;27555;50.808;4.402;2023-03-03T01:49:05;4.20;99.90
41876;DHT22;27555;50.808;4.402;2023-03-03T01:51:37;3.90;99.90
41876;DHT22;27555;50.808;4.402;2023-03-03T01:54:11;3.90;99.90
41876;DHT22;27555;50.808;4.402;2023-03-03T01:56:40;4.00;99.90
41876;DHT22;27555;50.808;4.402;2023-03-03T01:59:10;3.80;99.90
41876;DHT22;27555;50.808;4.402;2023-03-03T02:01:38;4.10;99.90
41876;DHT22;27555;50.808;4.402;2023-03-03T02:04:05;3.90;99.90
41876;DHT22;27555;50.808;4.402;2023-03-03T02:06:34;3.60;99.90
41876;DHT22;27555;50.808;4.402;2023-03-03T02:09:26;3.40;99.90
41876;DHT22;27555;50.808;4.402;2023-03-03T02:11:57;3.40;99.90
41876;DHT22;27555;50.808;4.402;2023-03-03T02:14:24;3.40;99.90
41876;DHT22;27555;50.808;4.402;2023-03-03T02:16:50;3.30;99.90
41876;DHT22;27555;50.808;4.402;2023-03-03T02:19:42;3.30;99.90
41876;DHT22;27555;50.808;4.402;2023-03-03T02:22:13;3.30;99.90
41876;DHT22;27555;50.808;4.402;2023-03-03T02:24:54;3.20;99.90
41876;DHT22;27555;50.808;4.402;2023-03-03T02:27:21;3.20;99.90
41876;DHT22;27555;50.808;4.402;2023-03-03T02:29:47;3.20;99.90
41876;DHT22;27555;50.808;4.402;2023-03-03T02:32:13;3.10;99.90
41876;DHT22;27555;50.808;4.402;2023-03-03T02:34:49;3.40;99.90
41876;DHT22;27555;50.808;4.402;2023-03-03T02:37:16;3.50;99.90
41876;DHT22;27555;50.808;4.402;2023-03-03T02:39:42;3.70;99.90
41876;DHT22;27555;50.808;4.402;2023-03-03T02:42:18;3.90;99.90
41876;DHT22;27555;50.808;4.402;2023-03-03T02:44:46;4.20;99.90
41876;DHT22;27555;50.808;4.402;2023-03-03T02:47:12;4.20;99.90
41876;DHT22;27555;50.808;4.402;2023-03-03T02:49:37;4.30;99.90
41876;DHT22;27555;50.808;4.402;2023-03-03T02:52:06;4.30;99.90
41876;DHT22;27555;50.808;4.402;2023-03-03T02:54:34;4.20;99.90
41876;DHT22;27555;50.808;4.402;2023-03-03T02:57:00;4.30;99.90
41876;DHT22;27555;50.808;4.402;2023-03-03T02:59:26;4.30;99.90
41876;DHT22;27555;50.808;4.402;2023-03-03T03:01:52;4.20;99.90
41876;DHT22;27555;50.808;4.402;2023-03-03T03:04:23;4.00;99.90
41876;DHT22;27555;50.808;4.402;2023-03-03T03:06:50;4.00;99.90
41876;DHT22;27555;50.808;4.402;2023-03-03T03:09:17;3.80;99.90
41876;DHT22;27555;50.808;4.402;2023-03-03T03:11:43;3.70;99.90
41876;DHT22;27555;50.808;4.402;2023-03-03T03:14:10;3.90;99.90
41876;DHT22;27555;50.808;4.402;2023-03-03T03:16:36;3.80;99.90
41876;DHT22;27555;50.808;4.402;2023-03-03T03:19:02;3.60;99.90
41876;DHT22;27555;50.808;4.402;2023-03-03T03:21:28;3.70;99.90
41876;DHT22;27555;50.808;4.402;2023-03-03T03:23:54;3.60;99.90
41876;DHT22;27555;50.808;4.402;2023-03-03T03:26:20;3.60;99.90
41876;DHT22;27555;50.808;4.402;2023-03-03T03:28:46;3.40;99.90
41876;DHT22;27555;50.808;4.402;2023-03-03T03:31:12;3.20;99.90
41876;DHT22;27555;50.808;4.402;2023-03-03T03:33:38;2.90;99.90
41876;DHT22;27555;50.808;4.402;2023-03-03T03:36:05;2.80;99.90
41876;DHT22;27555;50.808;4.402;2023-03-03T03:38:32;2.80;99.90
41876;DHT22;27555;50.808;4.402;2023-03-03T03:40:57;3.10;99.90
41876;DHT22;27555;50.808;4.402;2023-03-03T03:43:24;3.60;99.90
41876;DHT22;27555;50.808;4.402;2023-03-03T03:45:49;3.70;99.90
41876;DHT22;27555;50.808;4.402;2023-03-03T03:48:15;3.70;99.90
41876;DHT22;27555;50.808;4.402;2023-03-03T03:50:41;3.90;99.90
41876;DHT22;27555;50.808;4.402;2023-03-03T03:53:07;4.00;99.90
41876;DHT22;27555;50.808;4.402;2023-03-03T03:55:33;4.10;99.90
41876;DHT22;27555;50.808;4.402;2023-03-03T03:57:59;3.90;99.90
41876;DHT22;27555;50.808;4.402;2023-03-03T04:00:24;3.40;99.90
41876;DHT22;27555;50.808;4.402;2023-03-03T04:02:51;3.10;99.90
41876;DHT22;27555;50.808;4.402;2023-03-03T04:05:17;2.90;99.90
41876;DHT22;27555;50.808;4.402;2023-03-03T04:07:43;2.90;99.90
41876;DHT22;27555;50.808;4.402;2023-03-03T04:10:09;2.70;99.90
41876;DHT22;27555;50.808;4.402;2023-03-03T04:12:35;2.60;99.90
41876;DHT22;27555;50.808;4.402;2023-03-03T04:17:31;3.00;99.90
41876;DHT22;27555;50.808;4.402;2023-03-03T04:19:56;3.10;99.90
41876;DHT22;27555;50.808;4.402;2023-03-03T04:22:22;3.30;99.90
41876;DHT22;27555;50.808;4.402;2023-03-03T04:24:47;3.60;99.90
41876;DHT22;27555;50.808;4.402;2023-03-03T04:27:13;3.90;99.90
41876;DHT22;27555;50.808;4.402;2023-03-03T04:29:40;3.90;99.90
41876;DHT22;27555;50.808;4.402;2023-03-03T04:32:06;3.40;99.90
41876;DHT22;27555;50.808;4.402;2023-03-03T04:34:32;3.10;99.90
41876;DHT22;27555;50.808;4.402;2023-03-03T04:36:58;2.90;99.90
41876;DHT22;27555;50.808;4.402;2023-03-03T04:39:23;2.90;99.90
41876;DHT22;27555;50.808;4.402;2023-03-03T04:41:49;3.30;99.90
41876;DHT22;27555;50.808;4.402;2023-03-03T04:44:15;3.30;99.90
41876;DHT22;27555;50.808;4.402;2023-03-03T04:46:40;2.90;99.90
41876;DHT22;27555;50.808;4.402;2023-03-03T04:49:06;2.90;99.90
41876;DHT22;27555;50.808;4.402;2023-03-03T04:51:33;2.80;99.90
41876;DHT22;27555;50.808;4.402;2023-03-03T04:53:59;2.70;99.90
41876;DHT22;27555;50.808;4.402;2023-03-03T04:56:24;2.70;99.90
41876;DHT22;27555;50.808;4.402;2023-03-03T04:58:50;2.70;99.90
41876;DHT22;27555;50.808;4.402;2023-03-03T05:01:16;2.60;99.90
41876;DHT22;27555;50.808;4.402;2023-03-03T05:03:43;2.50;99.90
41876;DHT22;27555;50.808;4.402;2023-03-03T05:06:09;2.50;99.90
41876;DHT22;27555;50.808;4.402;2023-03-03T05:08:35;2.70;99.90
41876;DHT22;27555;50.808;4.402;2023-03-03T05:11:00;2.50;99.90
41876;DHT22;27555;50.808;4.402;2023-03-03T05:13:27;2.50;99.90
41876;DHT22;27555;50.808;4.402;2023-03-03T05:15:54;2.70;99.90
41876;DHT22;27555;50.808;4.402;2023-03-03T05:18:21;2.70;99.90
41876;DHT22;27555;50.808;4.402;2023-03-03T05:20:47;2.30;99.90
41876;DHT22;27555;50.808;4.402;2023-03-03T05:23:13;2.10;99.90
41876;DHT22;27555;50.808;4.402;2023-03-03T05:25:40;2.20;99.90
41876;DHT22;27555;50.808;4.402;2023-03-03T05:28:06;2.10;99.90
41876;DHT22;27555;50.808;4.402;2023-03-03T05:30:32;2.00;99.90
41876;DHT22;27555;50.808;4.402;2023-03-03T05:32:57;2.00;99.90
41876;DHT22;27555;50.808;4.402;2023-03-03T05:35:24;2.00;99.90
41876;DHT22;27555;50.808;4.402;2023-03-03T05:37:49;2.00;99.90
41876;DHT22;27555;50.808;4.402;2023-03-03T05:40:15;2.00;99.90
41876;DHT22;27555;50.808;4.402;2023-03-03T05:42:41;2.00;99.90
41876;DHT22;27555;50.808;4.402;2023-03-03T05:45:07;2.00;99.90
41876;DHT22;27555;50.808;4.402;2023-03-03T05:47:32;2.00;99.90
41876;DHT22;27555;50.808;4.402;2023-03-03T05:49:58;2.00;99.90
41876;DHT22;27555;50.808;4.402;2023-03-03T05:52:25;2.00;99.90
41876;DHT22;27555;50.808;4.402;2023-03-03T05:54:50;2.10;99.90
41876;DHT22;27555;50.808;4.402;2023-03-03T05:57:16;2.20;99.90
41876;DHT22;27555;50.808;4.402;2023-03-03T05:59:42;2.40;99.90
41876;DHT22;27555;50.808;4.402;2023-03-03T06:02:07;2.50;99.90
41876;DHT22;27555;50.808;4.402;2023-03-03T06:04:33;2.80;99.90
41876;DHT22;27555;50.808;4.402;2023-03-03T06:06:58;2.90;99.90
41876;DHT22;27555;50.808;4.402;2023-03-03T06:09:24;2.80;99.90
41876;DHT22;27555;50.808;4.402;2023-03-03T06:11:51;2.40;99.90
41876;DHT22;27555;50.808;4.402;2023-03-03T06:14:18;2.20;99.90
41876;DHT22;27555;50.808;4.402;2023-03-03T06:16:48;2.10;99.90
41876;DHT22;27555;50.808;4.402;2023-03-03T06:19:14;2.00;99.90
41876;DHT22;27555;50.808;4.402;2023-03-03T06:21:40;2.00;99.90
41876;DHT22;27555;50.808;4.402;2023-03-03T06:24:06;2.00;99.90
41876;DHT22;27555;50.808;4.402;2023-03-03T06:26:32;1.90;99.90
41876;DHT22;27555;50.808;4.402;2023-03-03T06:28:58;1.80;99.90
41876;DHT22;27555;50.808;4.402;2023-03-03T06:31:24;1.70;99.90
41876;DHT22;27555;50.808;4.402;2023-03-03T06:33:50;1.80;99.90
41876;DHT22;27555;50.808;4.402;2023-03-03T06:36:16;1.80;99.90
41876;DHT22;27555;50.808;4.402;2023-03-03T06:38:42;2.00;99.90
41876;DHT22;27555;50.808;4.402;2023-03-03T06:41:08;2.00;99.90
41876;DHT22;27555;50.808;4.402;2023-03-03T06:43:34;1.90;99.90
41876;DHT22;27555;50.808;4.402;2023-03-03T06:46:01;1.80;99.90
41876;DHT22;27555;50.808;4.402;2023-03-03T06:48:28;1.90;99.90
41876;DHT22;27555;50.808;4.402;2023-03-03T06:50:54;2.30;99.90
41876;DHT22;27555;50.808;4.402;2023-03-03T06:53:19;2.40;99.90
41876;DHT22;27555;50.808;4.402;2023-03-03T06:55:45;2.20;99.90
41876;DHT22;27555;50.808;4.402;2023-03-03T06:58:16;2.00;99.90
41876;DHT22;27555;50.808;4.402;2023-03-03T07:00:44;2.10;99.90
41876;DHT22;27555;50.808;4.402;2023-03-03T07:03:16;2.10;99.90
41876;DHT22;27555;50.808;4.402;2023-03-03T07:05:43;2.10;99.90
41876;DHT22;27555;50.808;4.402;2023-03-03T07:08:17;2.10;99.90
41876;DHT22;27555;50.808;4.402;2023-03-03T07:10:44;2.10;99.90
41876;DHT22;27555;50.808;4.402;2023-03-03T07:13:20;2.00;99.90
41876;DHT22;27555;50.808;4.402;2023-03-03T07:15:48;1.90;99.90
41876;DHT22;27555;50.808;4.402;2023-03-03T07:20:57;1.70;99.90
41876;DHT22;27555;50.808;4.402;2023-03-03T07:23:30;1.70;99.90
41876;DHT22;27555;50.808;4.402;2023-03-03T07:25:59;2.10;99.90
41876;DHT22;27555;50.808;4.402;2023-03-03T07:28:27;2.20;99.90
41876;DHT22;27555;50.808;4.402;2023-03-03T07:30:54;2.10;99.90
41876;DHT22;27555;50.808;4.402;2023-03-03T07:33:30;2.00;99.90
41876;DHT22;27555;50.808;4.402;2023-03-03T07:35:58;2.00;99.90
41876;DHT22;27555;50.808;4.402;2023-03-03T07:38:43;2.00;99.90
41876;DHT22;27555;50.808;4.402;2023-03-03T07:41:17;2.00;99.90
41876;DHT22;27555;50.808;4.402;2023-03-03T07:43:59;2.20;99.90
41876;DHT22;27555;50.808;4.402;2023-03-03T07:46:40;2.30;99.90
41876;DHT22;27555;50.808;4.402;2023-03-03T07:49:23;2.30;99.90
41876;DHT22;27555;50.808;4.402;2023-03-03T07:51:56;2.50;99.90
41876;DHT22;27555;50.808;4.402;2023-03-03T07:54:35;2.60;99.90
41876;DHT22;27555;50.808;4.402;2023-03-03T07:59:44;2.80;99.90
41876;DHT22;27555;50.808;4.402;2023-03-03T08:05:38;2.70;99.90
41876;DHT22;27555;50.808;4.402;2023-03-03T08:10:51;2.70;99.90
41876;DHT22;27555;50.808;4.402;2023-03-03T08:13:39;3.00;99.90
41876;DHT22;27555;50.808;4.402;2023-03-03T08:18:43;3.00;99.90
41876;DHT22;27555;50.808;4.402;2023-03-03T08:21:14;3.00;99.90
41876;DHT22;27555;50.808;4.402;2023-03-03T08:23:41;2.90;99.90
41876;DHT22;27555;50.808;4.402;2023-03-03T08:26:07;2.80;99.90
41876;DHT22;27555;50.808;4.402;2023-03-03T08:28:34;2.60;99.90
41876;DHT22;27555;50.808;4.402;2023-03-03T08:30:59;2.60;99.90
41876;DHT22;27555;50.808;4.402;2023-03-03T08:33:25;2.50;99.90
41876;DHT22;27555;50.808;4.402;2023-03-03T08:35:50;2.30;99.90
41876;DHT22;27555;50.808;4.402;2023-03-03T08:38:18;2.30;99.90
41876;DHT22;27555;50.808;4.402;2023-03-03T08:40:45;2.50;99.90
41876;DHT22;27555;50.808;4.402;2023-03-03T08:43:12;2.80;99.90
41876;DHT22;27555;50.808;4.402;2023-03-03T08:45:45;3.00;99.90
41876;DHT22;27555;50.808;4.402;2023-03-03T08:48:11;3.30;99.90
41876;DHT22;27555;50.808;4.402;2023-03-03T08:50:38;3.50;99.90
41876;DHT22;27555;50.808;4.402;2023-03-03T08:53:04;3.10;99.90
41876;DHT22;27555;50.808;4.402;2023-03-03T08:55:30;3.20;99.90
41876;DHT22;27555;50.808;4.402;2023-03-03T08:57:55;3.20;99.90
41876;DHT22;27555;50.808;4.402;2023-03-03T09:00:21;2.90;99.90
41876;DHT22;27555;50.808;4.402;2023-03-03T09:02:48;2.90;99.90
41876;DHT22;27555;50.808;4.402;2023-03-03T09:05:15;3.00;99.90
41876;DHT22;27555;50.808;4.402;2023-03-03T09:07:42;3.30;99.90
41876;DHT22;27555;50.808;4.402;2023-03-03T09:10:10;3.20;99.90
41876;DHT22;27555;50.808;4.402;2023-03-03T09:12:40;3.30;99.90
41876;DHT22;27555;50.808;4.402;2023-03-03T09:15:14;3.20;99.90
41876;DHT22;27555;50.808;4.402;2023-03-03T09:17:41;2.60;99.90
41876;DHT22;27555;50.808;4.402;2023-03-03T09:23:32;2.40;99.90
41876;DHT22;27555;50.808;4.402;2023-03-03T09:26:21;2.40;99.90
41876;DHT22;27555;50.808;4.402;2023-03-03T09:28:44;2.40;99.90
41876;DHT22;27555;50.808;4.402;2023-03-03T09:33:47;2.20;99.90
41876;DHT22;27555;50.808;4.402;2023-03-03T09:38:50;2.30;99.90
41876;DHT22;27555;50.808;4.402;2023-03-03T10:01:28;2.80;99.90
41876;DHT22;27555;50.808;4.402;2023-03-03T10:06:47;3.40;99.90
41876;DHT22;27555;50.808;4.402;2023-03-03T10:12:19;3.90;99.90
41876;DHT22;27555;50.808;4.402;2023-03-03T10:20:43;3.50;99.90
41876;DHT22;27555;50.808;4.402;2023-03-03T10:24:00;3.50;99.90
41876;DHT22;27555;50.808;4.402;2023-03-03T10:35:22;4.00;99.90
41876;DHT22;27555;50.808;4.402;2023-03-03T10:40:23;4.20;99.90
41876;DHT22;27555;50.808;4.402;2023-03-03T10:48:29;3.30;99.90
41876;DHT22;27555;50.808;4.402;2023-03-03T10:51:15;3.50;99.90
41876;DHT22;27555;50.808;4.402;2023-03-03T10:53:53;3.80;99.90
41876;DHT22;27555;50.808;4.402;2023-03-03T10:56:52;4.00;99.90
41876;DHT22;27555;50.808;4.402;2023-03-03T10:59:35;4.10;99.90
41876;DHT22;27555;50.808;4.402;2023-03-03T11:02:21;4.00;99.90
41876;DHT22;27555;50.808;4.402;2023-03-03T11:07:43;4.50;99.90
41876;DHT22;27555;50.808;4.402;2023-03-03T11:13:08;4.80;99.90
41876;DHT22;27555;50.808;4.402;2023-03-03T11:18:30;5.00;99.90
41876;DHT22;27555;50.808;4.402;2023-03-03T11:21:49;4.90;99.90
41876;DHT22;27555;50.808;4.402;2023-03-03T11:26:57;5.70;99.90
41876;DHT22;27555;50.808;4.402;2023-03-03T11:29:58;5.70;99.90
41876;DHT22;27555;50.808;4.402;2023-03-03T11:32:37;5.60;99.90
41876;DHT22;27555;50.808;4.402;2023-03-03T11:35:25;5.20;99.90
41876;DHT22;27555;50.808;4.402;2023-03-03T11:38:22;5.50;99.90
41876;DHT22;27555;50.808;4.402;2023-03-03T11:40:54;5.70;99.90
41876;DHT22;27555;50.808;4.402;2023-03-03T11:43:37;5.50;99.90
41876;DHT22;27555;50.808;4.402;2023-03-03T11:46:52;5.60;99.90
41876;DHT22;27555;50.808;4.402;2023-03-03T11:49:04;5.60;99.90
41876;DHT22;27555;50.808;4.402;2023-03-03T11:51:52;5.80;99.90
41876;DHT22;27555;50.808;4.402;2023-03-03T11:54:26;6.00;99.90
41876;DHT22;27555;50.808;4.402;2023-03-03T11:57:00;5.80;99.90
41876;DHT22;27555;50.808;4.402;2023-03-03T11:59:47;5.80;99.90
41876;DHT22;27555;50.808;4.402;2023-03-03T12:02:33;6.10;99.90
41876;DHT22;27555;50.808;4.402;2023-03-03T12:05:25;6.40;99.70
41876;DHT22;27555;50.808;4.402;2023-03-03T12:16:03;6.30;99.70
41876;DHT22;27555;50.808;4.402;2023-03-03T12:24:00;7.40;98.80
41876;DHT22;27555;50.808;4.402;2023-03-03T12:26:34;7.30;98.30
41876;DHT22;27555;50.808;4.402;2023-03-03T12:32:42;7.30;98.40
41876;DHT22;27555;50.808;4.402;2023-03-03T12:40:59;6.40;99.40
41876;DHT22;27555;50.808;4.402;2023-03-03T12:48:46;7.40;98.40
41876;DHT22;27555;50.808;4.402;2023-03-03T12:51:34;7.50;97.60
41876;DHT22;27555;50.808;4.402;2023-03-03T13:03:03;7.80;97.20
41876;DHT22;27555;50.808;4.402;2023-03-03T13:05:50;8.10;96.80
41876;DHT22;27555;50.808;4.402;2023-03-03T13:13:45;8.30;96.30
41876;DHT22;27555;50.808;4.402;2023-03-03T13:16:25;7.50;97.00
41876;DHT22;27555;50.808;4.402;2023-03-03T13:18:58;6.90;97.80
41876;DHT22;27555;50.808;4.402;2023-03-03T13:21:53;6.70;98.20
41876;DHT22;27555;50.808;4.402;2023-03-03T13:24:28;6.50;98.70
41876;DHT22;27555;50.808;4.402;2023-03-03T13:29:41;6.60;98.90
41876;DHT22;27555;50.808;4.402;2023-03-03T13:32:22;7.00;98.30
41876;DHT22;27555;50.808;4.402;2023-03-03T13:34:57;7.10;98.20
41876;DHT22;27555;50.808;4.402;2023-03-03T13:42:52;6.70;98.40
41876;DHT22;27555;50.808;4.402;2023-03-03T13:45:27;6.60;98.40
41876;DHT22;27555;50.808;4.402;2023-03-03T13:51:15;6.60;98.70
41876;DHT22;27555;50.808;4.402;2023-03-03T13:53:56;7.00;98.20
41876;DHT22;27555;50.808;4.402;2023-03-03T13:58:56;7.30;97.60
41876;DHT22;27555;50.808;4.402;2023-03-03T14:04:16;7.10;98.00
41876;DHT22;27555;50.808;4.402;2023-03-03T14:07:06;6.90;98.30
41876;DHT22;27555;50.808;4.402;2023-03-03T14:09:49;6.80;98.40
41876;DHT22;27555;50.808;4.402;2023-03-03T14:20:39;6.90;98.00
41876;DHT22;27555;50.808;4.402;2023-03-03T14:23:22;6.80;98.50
41876;DHT22;27555;50.808;4.402;2023-03-03T14:26:18;6.90;98.50
41876;DHT22;27555;50.808;4.402;2023-03-03T14:28:46;7.20;98.00
41876;DHT22;27555;50.808;4.402;2023-03-03T14:31:25;7.20;98.10
41876;DHT22;27555;50.808;4.402;2023-03-03T14:34:02;7.60;97.50
41876;DHT22;27555;50.808;4.402;2023-03-03T14:36:42;7.40;97.50
41876;DHT22;27555;50.808;4.402;2023-03-03T14:41:58;7.40;98.00
41876;DHT22;27555;50.808;4.402;2023-03-03T14:44:29;7.60;97.70
41876;DHT22;27555;50.808;4.402;2023-03-03T14:47:11;7.70;97.60
41876;DHT22;27555;50.808;4.402;2023-03-03T14:49:40;7.90;97.20
41876;DHT22;27555;50.808;4.402;2023-03-03T14:54:51;7.70;97.20
41876;DHT22;27555;50.808;4.402;2023-03-03T15:00:27;7.00;98.20
41876;DHT22;27555;50.808;4.402;2023-03-03T15:05:50;7.00;98.00
41876;DHT22;27555;50.808;4.402;2023-03-03T15:08:35;6.90;98.20
41876;DHT22;27555;50.808;4.402;2023-03-03T15:13:37;6.80;98.60
41876;DHT22;27555;50.808;4.402;2023-03-03T15:16:22;6.80;98.60
41876;DHT22;27555;50.808;4.402;2023-03-03T15:21:28;6.80;98.80
41876;DHT22;27555;50.808;4.402;2023-03-03T15:24:15;6.70;98.90
41876;DHT22;27555;50.808;4.402;2023-03-03T15:26:51;6.70;98.90
41876;DHT22;27555;50.808;4.402;2023-03-03T15:34:47;7.40;98.20
41876;DHT22;27555;50.808;4.402;2023-03-03T15:42:32;7.70;97.80
41876;DHT22;27555;50.808;4.402;2023-03-03T15:45:20;7.60;97.90
41876;DHT22;27555;50.808;4.402;2023-03-03T15:56:51;7.50;98.10
41876;DHT22;27555;50.808;4.402;2023-03-03T16:04:36;7.40;98.30
41876;DHT22;27555;50.808;4.402;2023-03-03T16:23:47;7.70;98.10
41876;DHT22;27555;50.808;4.402;2023-03-03T16:26:34;7.70;98.10
41876;DHT22;27555;50.808;4.402;2023-03-03T16:34:23;7.50;98.30
41876;DHT22;27555;50.808;4.402;2023-03-03T16:40:10;7.40;98.20
41876;DHT22;27555;50.808;4.402;2023-03-03T16:42:36;7.30;98.60
41876;DHT22;27555;50.808;4.402;2023-03-03T16:47:56;7.80;97.90
41876;DHT22;27555;50.808;4.402;2023-03-03T17:04:29;7.80;97.80
41876;DHT22;27555;50.808;4.402;2023-03-03T17:07:07;7.70;97.70
41876;DHT22;27555;50.808;4.402;2023-03-03T17:20:30;7.50;98.30
41876;DHT22;27555;50.808;4.402;2023-03-03T17:39:07;7.60;98.20
41876;DHT22;27555;50.808;4.402;2023-03-03T17:45:04;7.60;98.30
41876;DHT22;27555;50.808;4.402;2023-03-03T17:47:12;7.60;98.40
41876;DHT22;27555;50.808;4.402;2023-03-03T17:50:05;7.50;98.50
41876;DHT22;27555;50.808;4.402;2023-03-03T17:55:26;7.50;98.40
41876;DHT22;27555;50.808;4.402;2023-03-03T17:58:20;7.40;98.50
41876;DHT22;27555;50.808;4.402;2023-03-03T18:06:43;7.30;98.40
41876;DHT22;27555;50.808;4.402;2023-03-03T18:12:11;7.20;98.30
41876;DHT22;27555;50.808;4.402;2023-03-03T18:17:42;7.30;98.20
41876;DHT22;27555;50.808;4.402;2023-03-03T18:23:40;7.60;97.80
41876;DHT22;27555;50.808;4.402;2023-03-03T18:29:10;7.80;97.40
41876;DHT22;27555;50.808;4.402;2023-03-03T18:31:46;7.50;97.70
41876;DHT22;27555;50.808;4.402;2023-03-03T18:36:57;7.30;98.20
41876;DHT22;27555;50.808;4.402;2023-03-03T18:40:14;7.30;98.00
41876;DHT22;27555;50.808;4.402;2023-03-03T18:42:40;7.40;98.00
41876;DHT22;27555;50.808;4.402;2023-03-03T18:50:35;7.50;98.10
41876;DHT22;27555;50.808;4.402;2023-03-03T18:53:25;7.70;97.90
41876;DHT22;27555;50.808;4.402;2023-03-03T18:55:52;7.70;97.70
41876;DHT22;27555;50.808;4.402;2023-03-03T19:09:19;8.10;97.50
41876;DHT22;27555;50.808;4.402;2023-03-03T19:12:07;8.00;97.40
41876;DHT22;27555;50.808;4.402;2023-03-03T19:14:37;8.00;97.30
41876;DHT22;27555;50.808;4.402;2023-03-03T19:20:13;8.30;96.90
41876;DHT22;27555;50.808;4.402;2023-03-03T19:22:47;8.40;96.80
41876;DHT22;27555;50.808;4.402;2023-03-03T19:25:21;8.40;96.70
41876;DHT22;27555;50.808;4.402;2023-03-03T19:30:38;8.10;97.10
41876;DHT22;27555;50.808;4.402;2023-03-03T19:35:44;8.40;96.80
41876;DHT22;27555;50.808;4.402;2023-03-03T19:41:19;8.20;96.80
41876;DHT22;27555;50.808;4.402;2023-03-03T19:52:28;8.00;97.00
41876;DHT22;27555;50.808;4.402;2023-03-03T20:01:04;7.60;96.80
41876;DHT22;27555;50.808;4.402;2023-03-03T20:09:35;7.30;97.20
41876;DHT22;27555;50.808;4.402;2023-03-03T20:14:51;7.10;97.60
41876;DHT22;27555;50.808;4.402;2023-03-03T20:17:38;7.20;97.60
41876;DHT22;27555;50.808;4.402;2023-03-03T20:23:30;7.10;97.90
41876;DHT22;27555;50.808;4.402;2023-03-03T20:26:05;7.50;97.30
41876;DHT22;27555;50.808;4.402;2023-03-03T20:31:48;7.30;97.30
41876;DHT22;27555;50.808;4.402;2023-03-03T20:37:42;7.30;97.40
41876;DHT22;27555;50.808;4.402;2023-03-03T20:48:32;7.70;97.20
41876;DHT22;27555;50.808;4.402;2023-03-03T20:51:09;7.50;97.10
41876;DHT22;27555;50.808;4.402;2023-03-03T20:56:49;7.50;96.90
41876;DHT22;27555;50.808;4.402;2023-03-03T21:04:33;7.40;97.30
41876;DHT22;27555;50.808;4.402;2023-03-03T21:07:02;7.50;97.30
41876;DHT22;27555;50.808;4.402;2023-03-03T21:11:54;7.80;97.00
41876;DHT22;27555;50.808;4.402;2023-03-03T21:14:26;7.60;97.40
41876;DHT22;27555;50.808;4.402;2023-03-03T21:16:55;7.40;98.00
41876;DHT22;27555;50.808;4.402;2023-03-03T21:19:28;7.30;98.20
41876;DHT22;27555;50.808;4.402;2023-03-03T21:21:55;7.40;98.10
41876;DHT22;27555;50.808;4.402;2023-03-03T21:24:21;7.70;97.80
41876;DHT22;27555;50.808;4.402;2023-03-03T21:27:00;7.70;97.50
41876;DHT22;27555;50.808;4.402;2023-03-03T21:29:31;7.50;97.80
41876;DHT22;27555;50.808;4.402;2023-03-03T21:32:02;7.50;98.00
41876;DHT22;27555;50.808;4.402;2023-03-03T21:37:04;7.50;98.30
41876;DHT22;27555;50.808;4.402;2023-03-03T21:39:39;7.50;98.10
41876;DHT22;27555;50.808;4.402;2023-03-03T21:42:09;7.30;98.40
41876;DHT22;27555;50.808;4.402;2023-03-03T21:44:36;7.30;98.50
41876;DHT22;27555;50.808;4.402;2023-03-03T21:47:03;7.10;98.70
41876;DHT22;27555;50.808;4.402;2023-03-03T21:49:30;7.00;98.80
41876;DHT22;27555;50.808;4.402;2023-03-03T21:51:56;7.00;98.50
41876;DHT22;27555;50.808;4.402;2023-03-03T21:54:22;7.20;98.40
41876;DHT22;27555;50.808;4.402;2023-03-03T21:56:48;7.20;98.10
41876;DHT22;27555;50.808;4.402;2023-03-03T21:59:16;7.50;97.80
41876;DHT22;27555;50.808;4.402;2023-03-03T22:01:42;7.70;97.40
41876;DHT22;27555;50.808;4.402;2023-03-03T22:04:08;7.70;97.20
41876;DHT22;27555;50.808;4.402;2023-03-03T22:06:34;7.40;97.20
41876;DHT22;27555;50.808;4.402;2023-03-03T22:09:02;7.40;97.10
41876;DHT22;27555;50.808;4.402;2023-03-03T22:11:28;7.50;97.00
41876;DHT22;27555;50.808;4.402;2023-03-03T22:13:54;7.40;97.20
41876;DHT22;27555;50.808;4.402;2023-03-03T22:16:19;7.20;97.40
41876;DHT22;27555;50.808;4.402;2023-03-03T22:18:45;7.10;97.30
41876;DHT22;27555;50.808;4.402;2023-03-03T22:21:10;7.20;97.30
41876;DHT22;27555;50.808;4.402;2023-03-03T22:23:36;7.10;97.50
41876;DHT22;27555;50.808;4.402;2023-03-03T22:26:02;7.30;97.20
41876;DHT22;27555;50.808;4.402;2023-03-03T22:28:28;7.40;97.00
41876;DHT22;27555;50.808;4.402;2023-03-03T22:30:56;7.30;97.30